Time;durP1;ratioP1;P1;durP2;ratioP2;P2;SDS_P1;SDS_P2;PMS_P1;PMS_P2;Temp;Humidity;BMP_temperature;BMP_pressure;BME280_temperature;BME280_humidity;BME280_pressure;Samples;Min_cycle;Max_cycle;Signal;HPM_P1;HPM_P2
2023/04/03 00:00:25;;;;;;;2.30;2.10;;;6.20;65.40;;;;;;5018777;28;20193;-83
2023/04/03 00:02:51;;;;;;;2.70;2.50;;;6.20;66.00;;;;;;5019780;28;20261;-82
2023/04/03 00:05:16;;;;;;;2.40;2.20;;;6.30;66.80;;;;;;5017610;28;20563;-85
2023/04/03 00:07:42;;;;;;;2.27;2.07;;;6.20;66.30;;;;;;5018150;28;20177;-84
2023/04/03 00:10:08;;;;;;;2.83;2.47;;;6.20;65.50;;;;;;5018233;28;20205;-86
2023/04/03 00:12:34;;;;;;;2.67;2.47;;;6.20;65.50;;;;;;5017865;28;20173;-84
2023/04/03 00:14:59;;;;;;;2.40;2.20;;;6.20;65.40;;;;;;5017623;28;20200;-82
2023/04/03 00:17:25;;;;;;;3.03;2.30;;;6.20;66.30;;;;;;5016729;28;20776;-88
2023/04/03 00:19:51;;;;;;;2.87;2.50;;;6.10;65.60;;;;;;5018717;28;20520;-86
2023/04/03 00:22:16;;;;;;;2.50;2.30;;;6.10;66.60;;;;;;5019652;28;20204;-84
2023/04/03 00:24:42;;;;;;;2.57;2.30;;;6.20;66.90;;;;;;5023883;28;20170;-84
2023/04/03 00:27:08;;;;;;;3.10;2.50;;;6.20;65.60;;;;;;5024197;28;20204;-85
2023/04/03 00:29:33;;;;;;;2.40;2.20;;;6.30;66.40;;;;;;5024325;28;20209;-88
2023/04/03 00:31:59;;;;;;;3.67;2.57;;;6.30;65.70;;;;;;5024811;28;20178;-85
2023/04/03 00:34:25;;;;;;;3.43;2.53;;;6.30;66.20;;;;;;5024548;28;20718;-84
2023/04/03 00:36:51;;;;;;;2.40;2.20;;;6.30;66.80;;;;;;5023548;28;20284;-84
2023/04/03 00:39:17;;;;;;;2.40;2.20;;;6.20;66.50;;;;;;5030556;28;20201;-86
2023/04/03 00:41:42;;;;;;;2.13;2.03;;;6.10;66.30;;;;;;5030773;28;20177;-85
2023/04/03 00:44:50;;;;;;;2.40;2.20;;;6.10;66.80;;;;;;5023224;28;20185;-87
2023/04/03 00:47:17;;;;;;;2.30;2.10;;;6.20;66.90;;;;;;5013332;28;20256;-83
2023/04/03 00:49:44;;;;;;;3.10;2.10;;;6.20;67.40;;;;;;5022701;28;20221;-83
2023/04/03 00:52:15;;;;;;;2.97;2.30;;;6.20;66.60;;;;;;5023911;28;20206;-83
2023/04/03 00:54:43;;;;;;;2.87;2.10;;;6.30;66.80;;;;;;5023952;28;20173;-86
2023/04/03 00:57:09;;;;;;;2.30;2.10;;;6.20;66.20;;;;;;5021615;28;20221;-87
2023/04/03 00:59:40;;;;;;;1.97;1.77;;;6.10;66.50;;;;;;5022236;28;20217;-87
2023/04/03 01:02:06;;;;;;;2.80;2.20;;;6.10;67.20;;;;;;5023188;28;20166;-83
2023/04/03 01:04:35;;;;;;;2.60;2.40;;;6.20;67.50;;;;;;5020862;28;20208;-86
2023/04/03 01:07:06;;;;;;;2.50;2.30;;;6.20;67.40;;;;;;5020250;28;20595;-89
2023/04/03 01:09:33;;;;;;;2.60;2.17;;;6.10;67.30;;;;;;5019526;28;20269;-87
2023/04/03 01:12:37;;;;;;;3.23;2.10;;;6.00;67.20;;;;;;5021362;28;20260;-86
2023/04/03 01:15:25;;;;;;;2.60;2.40;;;6.10;67.90;;;;;;5020742;28;20192;-85
2023/04/03 01:17:59;;;;;;;2.80;2.40;;;6.10;67.20;;;;;;5021062;28;20198;-86
2023/04/03 01:20:31;;;;;;;2.17;2.07;;;6.10;67.30;;;;;;5022393;28;20810;-84
2023/04/03 01:23:09;;;;;;;2.97;2.40;;;6.00;65.90;;;;;;5022479;28;20200;-83
2023/04/03 01:25:56;;;;;;;2.17;2.00;;;6.10;66.80;;;;;;5023420;28;20170;-87
2023/04/03 01:28:29;;;;;;;3.50;2.27;;;6.00;66.40;;;;;;5023555;28;20177;-86
2023/04/03 01:31:24;;;;;;;2.40;2.20;;;6.00;65.50;;;;;;5022553;28;20205;-83
2023/04/03 01:33:51;;;;;;;1.97;1.87;;;6.00;65.40;;;;;;5022290;28;20285;-83
2023/04/03 01:36:24;;;;;;;2.30;2.10;;;6.00;66.10;;;;;;5029021;28;20274;-85
2023/04/03 01:38:51;;;;;;;3.33;2.10;;;6.00;65.30;;;;;;5040489;28;20223;-85
2023/04/03 01:41:16;;;;;;;2.10;1.90;;;6.00;66.20;;;;;;5004774;28;20183;-82
2023/04/03 01:43:42;;;;;;;3.63;1.97;;;6.00;65.60;;;;;;5023771;28;20193;-84
2023/04/03 01:46:09;;;;;;;2.30;2.10;;;5.90;66.20;;;;;;5004805;28;20193;-88
2023/04/03 01:48:34;;;;;;;2.50;2.27;;;5.80;67.10;;;;;;5022356;28;20185;-83
2023/04/03 01:51:00;;;;;;;3.50;2.40;;;5.80;66.90;;;;;;5021766;28;20192;-85
2023/04/03 01:53:26;;;;;;;2.73;2.00;;;5.70;67.00;;;;;;5022509;28;20705;-87
2023/04/03 01:55:52;;;;;;;2.60;2.30;;;5.60;67.20;;;;;;5022711;28;20190;-81
2023/04/03 01:58:18;;;;;;;2.00;1.90;;;5.50;67.60;;;;;;5019977;28;20248;-85
2023/04/03 02:00:43;;;;;;;2.60;2.03;;;5.50;67.50;;;;;;5002089;28;20205;-86
2023/04/03 02:03:09;;;;;;;2.57;2.20;;;5.50;67.40;;;;;;5019236;28;20181;-87
2023/04/03 02:05:36;;;;;;;2.37;2.17;;;5.40;67.60;;;;;;5018649;28;20486;-88
2023/04/03 02:08:01;;;;;;;3.73;2.20;;;5.40;68.50;;;;;;5020261;28;20502;-85
2023/04/03 02:10:27;;;;;;;3.00;2.50;;;5.30;69.30;;;;;;5021141;28;20201;-85
2023/04/03 02:12:52;;;;;;;3.57;2.27;;;5.30;69.60;;;;;;5021481;28;20719;-85
2023/04/03 02:15:18;;;;;;;2.27;2.03;;;5.20;70.20;;;;;;5020145;28;20185;-87
2023/04/03 02:17:44;;;;;;;2.63;1.93;;;5.30;71.20;;;;;;5021609;28;20259;-86
2023/04/03 02:20:10;;;;;;;3.47;2.23;;;5.20;70.10;;;;;;5022329;28;20193;-83
2023/04/03 02:22:36;;;;;;;2.70;2.50;;;5.10;71.10;;;;;;5022380;28;20189;-85
2023/04/03 02:25:01;;;;;;;2.53;2.33;;;5.00;71.40;;;;;;5022204;28;20181;-86
2023/04/03 02:27:27;;;;;;;3.43;2.50;;;5.10;71.50;;;;;;5021861;28;20190;-81
2023/04/03 02:29:53;;;;;;;6.67;2.40;;;5.10;71.40;;;;;;5003481;28;20209;-85
2023/04/03 02:32:19;;;;;;;2.40;2.20;;;5.10;70.90;;;;;;5029626;28;20207;-85
2023/04/03 02:34:44;;;;;;;2.20;2.10;;;5.10;71.10;;;;;;5021313;28;20232;-84
2023/04/03 02:37:10;;;;;;;2.43;2.17;;;5.10;70.90;;;;;;5020899;28;20218;-84
2023/04/03 02:39:36;;;;;;;4.80;2.40;;;5.00;70.80;;;;;;5021678;28;20213;-82
2023/04/03 02:42:01;;;;;;;2.33;2.03;;;5.10;72.10;;;;;;5021885;28;20633;-85
2023/04/03 02:44:27;;;;;;;3.57;2.80;;;5.10;71.30;;;;;;5021999;28;20250;-83
2023/04/03 02:46:53;;;;;;;2.63;2.33;;;5.00;71.00;;;;;;5020517;28;20334;-84
2023/04/03 02:49:18;;;;;;;2.87;2.57;;;5.10;70.50;;;;;;5020132;28;20217;-84
2023/04/03 02:51:44;;;;;;;2.50;2.30;;;5.10;71.20;;;;;;5027948;28;20177;-86
2023/04/03 02:54:09;;;;;;;3.17;2.40;;;5.00;70.60;;;;;;5029160;28;20221;-88
2023/04/03 02:56:35;;;;;;;2.67;2.10;;;4.90;71.30;;;;;;5028193;28;20162;-88
2023/04/03 02:59:01;;;;;;;4.27;2.40;;;4.90;72.10;;;;;;5028223;28;20193;-87
2023/04/03 03:01:31;;;;;;;2.80;2.47;;;4.90;71.80;;;;;;5021576;28;20233;-89
2023/04/03 03:03:57;;;;;;;2.87;2.30;;;4.90;72.00;;;;;;5019009;28;20208;-83
2023/04/03 03:06:22;;;;;;;2.73;2.23;;;4.80;71.90;;;;;;5018527;28;20285;-89
2023/04/03 03:08:48;;;;;;;3.40;2.40;;;4.80;72.90;;;;;;5019201;28;20193;-85
2023/04/03 03:11:14;;;;;;;3.63;2.57;;;4.70;72.80;;;;;;5020163;28;20798;-85
2023/04/03 03:13:40;;;;;;;3.43;2.20;;;4.70;73.00;;;;;;5021480;28;20193;-85
2023/04/03 03:16:06;;;;;;;2.77;2.57;;;4.70;72.80;;;;;;5020287;28;20213;-84
2023/04/03 03:18:32;;;;;;;2.57;2.37;;;4.60;73.20;;;;;;5020674;28;20209;-82
2023/04/03 03:21:00;;;;;;;3.27;2.23;;;4.50;73.40;;;;;;5020206;28;20211;-86
2023/04/03 03:23:27;;;;;;;3.13;2.60;;;4.50;74.20;;;;;;5021145;28;20173;-85
2023/04/03 03:25:58;;;;;;;2.20;2.00;;;4.40;73.60;;;;;;5021241;28;20185;-84
2023/04/03 03:28:24;;;;;;;3.07;2.57;;;4.40;74.00;;;;;;5038190;28;20208;-85
2023/04/03 03:30:50;;;;;;;2.63;2.27;;;4.50;74.00;;;;;;5021545;28;20212;-88
2023/04/03 03:33:17;;;;;;;2.87;2.50;;;4.50;73.80;;;;;;5021312;28;20240;-85
2023/04/03 03:35:43;;;;;;;2.47;2.27;;;4.50;74.50;;;;;;5019851;28;20178;-83
2023/04/03 03:38:08;;;;;;;3.17;2.20;;;4.40;74.60;;;;;;5004595;28;20626;-85
2023/04/03 03:40:34;;;;;;;3.07;2.67;;;4.30;74.70;;;;;;5023785;28;20257;-86
2023/04/03 03:43:00;;;;;;;3.27;2.33;;;4.30;74.70;;;;;;5025614;28;20188;-86
2023/04/03 03:45:25;;;;;;;3.63;2.20;;;4.30;75.20;;;;;;5023809;28;20674;-84
2023/04/03 03:47:51;;;;;;;2.57;2.27;;;4.30;75.00;;;;;;5024442;28;20177;-88
2023/04/03 03:50:17;;;;;;;2.40;2.20;;;4.30;75.00;;;;;;5022541;28;20213;-85
2023/04/03 03:52:42;;;;;;;2.50;2.30;;;4.20;75.10;;;;;;5023335;28;20236;-85
2023/04/03 03:55:08;;;;;;;2.20;1.90;;;4.30;75.50;;;;;;5017405;28;20997;-87
2023/04/03 03:57:33;;;;;;;2.77;2.20;;;4.30;75.00;;;;;;5015277;28;20197;-88
2023/04/03 03:59:59;;;;;;;3.00;2.70;;;4.30;75.20;;;;;;5020273;28;20277;-88
2023/04/03 04:02:25;;;;;;;6.27;2.40;;;4.30;75.10;;;;;;5004484;28;20285;-89
2023/04/03 04:04:51;;;;;;;2.47;2.27;;;4.30;75.30;;;;;;5021799;28;20185;-84
2023/04/03 04:07:17;;;;;;;2.83;2.20;;;4.30;75.00;;;;;;5021832;28;20182;-84
2023/04/03 04:09:42;;;;;;;2.93;2.50;;;4.30;75.00;;;;;;5020963;28;20274;-86
2023/04/03 04:12:08;;;;;;;4.53;3.40;;;4.30;75.10;;;;;;5020030;28;20731;-84
2023/04/03 04:14:34;;;;;;;3.67;2.80;;;4.30;74.50;;;;;;5021814;28;20185;-85
2023/04/03 04:16:59;;;;;;;4.60;3.33;;;4.30;75.70;;;;;;5022534;28;20209;-83
2023/04/03 04:19:25;;;;;;;3.53;3.23;;;4.40;75.40;;;;;;5023042;28;20269;-86
2023/04/03 04:21:50;;;;;;;3.10;2.70;;;4.30;75.40;;;;;;5022940;28;20184;-82
2023/04/03 04:24:16;;;;;;;3.47;3.17;;;4.40;75.50;;;;;;5029197;28;20319;-84
2023/04/03 04:26:41;;;;;;;4.23;2.53;;;4.40;75.60;;;;;;5032542;28;20185;-81
2023/04/03 04:29:09;;;;;;;7.27;6.57;;;4.40;75.00;;;;;;5016079;28;20649;-85
2023/04/03 04:31:35;;;;;;;4.50;3.57;;;4.50;74.90;;;;;;5020580;28;20281;-83
2023/04/03 04:34:01;;;;;;;2.80;2.60;;;4.50;74.90;;;;;;5023393;28;20216;-83
2023/04/03 04:36:26;;;;;;;7.57;6.70;;;4.40;74.90;;;;;;5042413;28;20181;-84
2023/04/03 04:38:52;;;;;;;5.37;4.40;;;4.40;75.30;;;;;;5027681;28;20688;-84
2023/04/03 04:41:22;;;;;;;9.10;7.13;;;4.40;76.20;;;;;;5022332;28;20178;-82
2023/04/03 04:43:48;;;;;;;8.67;7.60;;;4.40;75.40;;;;;;5022851;28;20589;-84
2023/04/03 04:46:13;;;;;;;4.73;3.40;;;4.50;75.50;;;;;;5022618;28;20311;-84
2023/04/03 04:48:40;;;;;;;4.20;3.80;;;4.50;76.40;;;;;;5022161;28;20860;-86
2023/04/03 04:51:06;;;;;;;5.70;5.10;;;4.50;75.40;;;;;;5023112;28;20204;-82
2023/04/03 04:53:31;;;;;;;5.30;4.20;;;4.40;76.30;;;;;;5022820;28;20233;-84
2023/04/03 04:55:57;;;;;;;3.77;3.40;;;4.40;75.90;;;;;;5022052;28;20325;-83
2023/04/03 04:58:23;;;;;;;4.00;3.60;;;4.30;76.30;;;;;;5019742;28;20232;-82
2023/04/03 05:00:48;;;;;;;3.37;3.07;;;4.30;76.30;;;;;;5019941;28;20220;-81
2023/04/03 05:03:14;;;;;;;7.07;5.63;;;4.30;76.50;;;;;;5006285;28;20186;-82
2023/04/03 05:05:40;;;;;;;9.20;7.57;;;4.30;76.70;;;;;;5009588;28;20178;-82
2023/04/03 05:08:08;;;;;;;9.70;8.07;;;4.40;76.30;;;;;;5012158;28;20265;-84
2023/04/03 05:10:33;;;;;;;8.97;6.50;;;4.40;76.30;;;;;;5016324;28;20236;-84
2023/04/03 05:12:59;;;;;;;11.43;8.63;;;4.40;76.30;;;;;;5016219;28;20183;-86
2023/04/03 05:15:24;;;;;;;12.93;8.07;;;4.40;75.30;;;;;;4997418;28;20236;-84
2023/04/03 05:17:50;;;;;;;15.80;10.07;;;4.40;73.80;;;;;;5011686;28;20200;-79
2023/04/03 05:20:19;;;;;;;21.53;13.17;;;4.40;74.20;;;;;;4999753;28;20242;-81
2023/04/03 05:22:45;;;;;;;11.30;7.97;;;4.40;74.30;;;;;;5015514;28;20233;-84
2023/04/03 05:25:10;;;;;;;18.20;10.77;;;4.30;74.60;;;;;;5014032;28;20182;-83
2023/04/03 05:27:36;;;;;;;26.13;15.03;;;4.30;74.60;;;;;;5014326;28;20195;-82
2023/04/03 05:30:02;;;;;;;5.73;5.07;;;4.30;74.60;;;;;;5011954;28;20305;-83
2023/04/03 05:32:28;;;;;;;5.03;4.53;;;4.30;74.50;;;;;;5016520;28;20195;-82
2023/04/03 05:34:54;;;;;;;5.00;4.57;;;4.30;74.20;;;;;;5013544;28;20217;-81
2023/04/03 05:37:20;;;;;;;6.20;5.60;;;4.20;73.90;;;;;;5009564;28;20198;-81
2023/04/03 05:39:46;;;;;;;5.80;5.30;;;4.20;74.00;;;;;;5015586;28;20205;-86
2023/04/03 05:42:12;;;;;;;3.93;3.57;;;4.20;72.80;;;;;;5011399;28;20198;-84
2023/04/03 05:44:38;;;;;;;3.90;3.40;;;4.20;73.40;;;;;;5016570;28;20197;-82
2023/04/03 05:47:04;;;;;;;4.80;2.90;;;4.10;72.80;;;;;;5014420;28;20185;-84
2023/04/03 05:49:33;;;;;;;3.10;2.80;;;4.10;72.80;;;;;;5012637;28;20735;-88
2023/04/03 05:51:59;;;;;;;3.03;2.80;;;4.10;73.30;;;;;;5003957;28;20339;-86
2023/04/03 05:54:29;;;;;;;4.87;3.60;;;4.10;73.40;;;;;;5021267;28;20276;-81
2023/04/03 05:56:55;;;;;;;2.80;2.60;;;4.10;73.00;;;;;;5001829;28;20186;-83
2023/04/03 05:59:21;;;;;;;3.13;2.43;;;4.10;72.60;;;;;;5019084;28;20208;-84
2023/04/03 06:01:48;;;;;;;3.73;3.17;;;4.10;72.70;;;;;;5022125;28;20317;-83
2023/04/03 06:04:14;;;;;;;2.93;2.20;;;4.00;73.70;;;;;;5024374;28;20241;-83
2023/04/03 06:06:55;;;;;;;4.80;2.63;;;4.00;73.10;;;;;;5023466;28;20177;-84
2023/04/03 06:09:23;;;;;;;6.00;2.83;;;4.00;73.50;;;;;;5009236;28;20201;-84
2023/04/03 06:11:49;;;;;;;3.47;2.70;;;4.10;73.50;;;;;;5010297;28;20257;-86
2023/04/03 06:14:14;;;;;;;3.03;2.73;;;4.00;73.10;;;;;;5011446;28;20684;-84
2023/04/03 06:16:40;;;;;;;3.93;2.53;;;4.00;73.80;;;;;;5021717;28;20197;-82
2023/04/03 06:19:10;;;;;;;4.30;3.00;;;4.00;73.10;;;;;;5030816;28;20210;-85
2023/04/03 06:21:35;;;;;;;2.60;2.40;;;4.00;73.40;;;;;;5023171;28;20652;-85
2023/04/03 06:24:02;;;;;;;3.97;2.97;;;3.90;73.50;;;;;;5022646;28;20220;-84
2023/04/03 06:26:28;;;;;;;3.20;2.77;;;4.00;74.00;;;;;;5014715;28;20189;-84
2023/04/03 06:28:54;;;;;;;3.23;2.80;;;4.20;73.70;;;;;;5017572;28;20194;-85
2023/04/03 06:31:20;;;;;;;4.37;3.00;;;4.30;72.80;;;;;;5016442;28;20185;-86
2023/04/03 06:33:45;;;;;;;3.43;2.67;;;4.30;72.00;;;;;;5023261;28;20232;-84
2023/04/03 06:36:12;;;;;;;3.80;3.17;;;4.40;72.50;;;;;;5021763;28;20245;-84
2023/04/03 06:38:38;;;;;;;3.20;2.77;;;4.40;72.00;;;;;;5022733;28;20201;-81
2023/04/03 06:41:04;;;;;;;3.33;3.00;;;4.40;71.80;;;;;;5019252;28;20169;-82
2023/04/03 06:43:31;;;;;;;4.13;2.63;;;4.50;71.70;;;;;;5002936;28;20253;-84
2023/04/03 06:45:57;;;;;;;3.93;2.70;;;4.50;72.40;;;;;;5020159;28;20185;-83
2023/04/03 06:48:23;;;;;;;2.93;2.67;;;4.60;71.70;;;;;;5019596;28;20181;-83
2023/04/03 06:50:48;;;;;;;3.20;2.33;;;4.70;71.40;;;;;;5019187;28;20355;-87
2023/04/03 06:53:14;;;;;;;4.60;2.80;;;4.60;70.80;;;;;;5020472;28;20185;-81
2023/04/03 06:55:41;;;;;;;5.10;3.10;;;4.70;71.80;;;;;;5019972;28;20188;-83
2023/04/03 06:58:06;;;;;;;4.67;2.63;;;4.70;71.90;;;;;;5020884;28;20216;-85
2023/04/03 07:00:32;;;;;;;3.50;3.00;;;4.60;71.30;;;;;;5022692;28;20236;-82
2023/04/03 07:02:58;;;;;;;3.97;2.83;;;4.70;71.70;;;;;;5022069;28;20205;-81
2023/04/03 07:05:25;;;;;;;4.60;3.50;;;4.80;71.90;;;;;;5021850;28;20247;-84
2023/04/03 07:07:51;;;;;;;3.93;3.53;;;4.80;71.70;;;;;;5021792;28;20186;-84
2023/04/03 07:10:17;;;;;;;3.73;3.33;;;4.90;71.10;;;;;;5019647;28;20279;-82
2023/04/03 07:12:43;;;;;;;6.10;2.90;;;4.90;70.90;;;;;;5009095;28;20217;-86
2023/04/03 07:15:09;;;;;;;5.23;3.60;;;5.00;71.20;;;;;;5025120;28;20209;-83
2023/04/03 07:17:36;;;;;;;3.60;2.53;;;5.00;70.60;;;;;;5022900;28;20646;-83
2023/04/03 07:20:03;;;;;;;6.97;3.93;;;4.90;70.50;;;;;;5022357;28;20217;-85
2023/04/03 07:22:29;;;;;;;3.40;3.10;;;4.90;72.00;;;;;;5022140;28;20193;-85
2023/04/03 07:24:56;;;;;;;3.10;2.80;;;5.10;71.30;;;;;;5023595;28;20169;-82
2023/04/03 07:27:22;;;;;;;3.80;3.00;;;5.10;71.80;;;;;;5021552;28;20177;-87
2023/04/03 07:29:50;;;;;;;4.57;3.03;;;5.20;71.10;;;;;;5023145;28;20219;-86
2023/04/03 07:32:17;;;;;;;2.90;2.70;;;5.20;71.20;;;;;;5022286;28;20174;-85
2023/04/03 07:34:43;;;;;;;3.93;3.10;;;5.20;71.20;;;;;;5022226;28;20188;-86
2023/04/03 07:37:09;;;;;;;4.27;2.77;;;5.20;71.40;;;;;;5021206;28;20292;-85
2023/04/03 07:39:35;;;;;;;4.63;3.33;;;5.20;71.00;;;;;;5021205;28;20194;-85
2023/04/03 07:42:01;;;;;;;3.47;3.03;;;5.30;71.80;;;;;;5022352;28;20193;-85
2023/04/03 07:44:27;;;;;;;3.93;3.50;;;5.50;71.40;;;;;;5022300;28;20316;-86
2023/04/03 07:46:55;;;;;;;6.13;3.23;;;5.60;70.50;;;;;;5022161;28;20189;-82
2023/04/03 07:49:22;;;;;;;3.57;3.13;;;5.70;70.00;;;;;;5020816;28;20284;-82
2023/04/03 07:51:48;;;;;;;5.47;3.30;;;5.80;70.40;;;;;;5021068;28;20173;-85
2023/04/03 07:54:15;;;;;;;4.23;3.20;;;5.90;69.90;;;;;;5020734;28;20238;-82
2023/04/03 07:56:42;;;;;;;5.37;3.50;;;6.10;69.50;;;;;;5019561;28;20655;-83
2023/04/03 07:59:08;;;;;;;5.80;3.37;;;6.10;69.10;;;;;;5020160;28;20239;-84
2023/04/03 08:01:34;;;;;;;5.33;3.00;;;6.20;68.30;;;;;;5023942;28;20197;-86
2023/04/03 08:04:00;;;;;;;5.17;3.17;;;6.30;68.30;;;;;;5029535;28;20170;-80
2023/04/03 08:06:26;;;;;;;6.63;4.23;;;6.40;67.50;;;;;;5028544;28;20704;-82
2023/04/03 08:08:51;;;;;;;3.93;3.20;;;6.60;67.30;;;;;;5033184;28;20201;-82
2023/04/03 08:11:18;;;;;;;3.77;3.37;;;6.70;67.20;;;;;;5026897;28;20212;-83
2023/04/03 08:13:44;;;;;;;4.60;4.10;;;6.90;65.50;;;;;;5022693;28;20272;-86
2023/04/03 08:16:16;;;;;;;3.50;3.07;;;7.00;65.10;;;;;;5021203;28;20204;-81
2023/04/03 08:18:42;;;;;;;4.27;3.30;;;7.10;64.90;;;;;;5004642;28;20264;-81
2023/04/03 08:21:11;;;;;;;3.27;2.93;;;7.20;63.60;;;;;;5022373;28;20174;-84
2023/04/03 08:23:38;;;;;;;4.20;3.30;;;7.30;63.20;;;;;;5022013;28;20185;-82
2023/04/03 08:26:17;;;;;;;3.80;2.83;;;7.40;63.00;;;;;;5004240;28;20190;-84
2023/04/03 08:28:43;;;;;;;4.57;3.53;;;7.40;63.10;;;;;;5005039;28;20205;-84
2023/04/03 08:31:14;;;;;;;4.07;3.20;;;7.40;62.90;;;;;;5004479;28;20210;-82
2023/04/03 08:33:40;;;;;;;3.30;3.00;;;7.40;62.60;;;;;;5020921;28;20166;-83
2023/04/03 08:36:15;;;;;;;3.20;2.90;;;7.40;62.20;;;;;;5003264;28;20184;-83
2023/04/03 08:38:41;;;;;;;3.20;2.90;;;7.40;61.70;;;;;;5003395;28;20202;-85
2023/04/03 08:41:30;;;;;;;3.30;3.00;;;7.30;60.70;;;;;;5004796;28;20281;-81
2023/04/03 08:44:16;;;;;;;3.40;3.10;;;7.30;62.10;;;;;;5023409;28;20158;-83
2023/04/03 08:47:13;;;;;;;4.83;3.13;;;7.50;63.60;;;;;;5007718;28;20668;-86
2023/04/03 08:49:51;;;;;;;5.47;3.17;;;7.80;61.50;;;;;;4970996;28;1108296;-83
2023/04/03 08:52:51;;;;;;;5.07;3.50;;;8.00;58.20;;;;;;5008153;28;20228;-82
2023/04/03 08:55:25;;;;;;;3.20;2.90;;;8.20;59.00;;;;;;5012239;28;20256;-81
2023/04/03 08:58:00;;;;;;;4.37;2.90;;;8.20;59.10;;;;;;5025891;28;20289;-82
2023/04/03 09:00:29;;;;;;;3.40;2.90;;;8.20;59.70;;;;;;5024328;28;20201;-82
2023/04/03 09:02:56;;;;;;;4.07;3.50;;;8.40;58.40;;;;;;5023374;28;20209;-84
2023/04/03 09:05:35;;;;;;;3.80;2.40;;;8.40;57.40;;;;;;5024849;28;20194;-85
2023/04/03 09:08:07;;;;;;;4.57;3.00;;;8.30;56.60;;;;;;5043048;28;20207;-86
2023/04/03 09:10:37;;;;;;;2.83;2.53;;;8.40;55.40;;;;;;5042486;28;20272;-85
2023/04/03 09:13:07;;;;;;;3.30;3.00;;;8.60;55.80;;;;;;5026644;28;20181;-84
2023/04/03 09:15:33;;;;;;;3.30;3.00;;;8.70;53.30;;;;;;5043241;28;20170;-85
2023/04/03 09:18:05;;;;;;;3.67;3.30;;;8.30;54.50;;;;;;5017894;28;20278;-82
2023/04/03 09:20:45;;;;;;;3.17;2.70;;;8.30;54.30;;;;;;5026410;28;20217;-82
2023/04/03 09:23:18;;;;;;;3.17;2.80;;;8.60;53.10;;;;;;5007801;28;20367;-82
2023/04/03 09:25:43;;;;;;;4.77;3.80;;;9.00;52.50;;;;;;5023105;28;20192;-84
2023/04/03 09:28:09;;;;;;;4.07;3.13;;;9.00;53.60;;;;;;5005948;28;20186;-81
2023/04/03 09:30:37;;;;;;;3.63;2.70;;;8.80;52.80;;;;;;5005124;28;20206;-83
2023/04/03 09:33:03;;;;;;;4.57;2.73;;;8.50;51.60;;;;;;5022411;28;20649;-81
2023/04/03 09:35:34;;;;;;;2.77;2.57;;;8.40;51.60;;;;;;5022761;28;20188;-83
2023/04/03 09:38:09;;;;;;;2.80;2.60;;;8.30;52.30;;;;;;5023557;28;20198;-84
2023/04/03 09:40:38;;;;;;;4.40;3.20;;;8.40;53.20;;;;;;5023484;28;20220;-84
2023/04/03 09:43:25;;;;;;;4.23;2.60;;;8.40;51.30;;;;;;5024154;28;20185;-85
2023/04/03 09:45:51;;;;;;;4.77;2.53;;;8.40;51.50;;;;;;5025619;28;20170;-82
2023/04/03 09:48:26;;;;;;;2.83;2.50;;;8.30;52.70;;;;;;5024889;28;20190;-84
2023/04/03 09:51:01;;;;;;;3.03;2.53;;;8.30;51.60;;;;;;5007933;28;20213;-81
2023/04/03 09:53:36;;;;;;;3.00;2.37;;;8.40;52.70;;;;;;5023059;28;20176;-83
2023/04/03 09:56:18;;;;;;;4.03;2.83;;;8.80;50.90;;;;;;5004827;28;20177;-83
2023/04/03 09:59:06;;;;;;;2.73;2.50;;;9.30;51.40;;;;;;5024219;28;20329;-84
2023/04/03 10:01:35;;;;;;;3.93;2.53;;;9.60;48.40;;;;;;5026101;28;20578;-81
2023/04/03 10:04:13;;;;;;;3.20;2.40;;;9.80;47.10;;;;;;5009248;28;20196;-84
2023/04/03 10:06:46;;;;;;;3.13;2.50;;;9.90;46.00;;;;;;5022225;28;20184;-85
2023/04/03 10:09:25;;;;;;;3.30;2.83;;;10.20;42.60;;;;;;5023047;28;20304;-83
2023/04/03 10:12:04;;;;;;;4.07;2.47;;;10.40;45.70;;;;;;5024442;28;20181;-84
2023/04/03 10:14:34;;;;;;;4.33;2.20;;;10.30;42.40;;;;;;5023814;28;20165;-84
2023/04/03 10:17:06;;;;;;;3.70;2.40;;;10.40;43.40;;;;;;5022315;28;20189;-83
2023/04/03 10:19:35;;;;;;;3.60;2.27;;;10.50;43.00;;;;;;5024767;28;20606;-83
2023/04/03 10:22:14;;;;;;;3.23;2.33;;;10.00;40.10;;;;;;5024030;28;20178;-84
2023/04/03 10:25:07;;;;;;;3.63;2.30;;;9.80;41.60;;;;;;5005260;28;20296;-83
2023/04/03 10:27:54;;;;;;;2.53;2.17;;;9.70;42.20;;;;;;5021812;28;20276;-85
2023/04/03 10:30:33;;;;;;;2.50;2.30;;;9.70;41.20;;;;;;5021862;28;20699;-84
2023/04/03 10:33:26;;;;;;;2.10;2.00;;;9.60;39.20;;;;;;5002962;28;20208;-84
2023/04/03 10:35:58;;;;;;;3.27;2.10;;;9.70;41.10;;;;;;5020764;28;20204;-84
2023/04/03 10:39:12;;;;;;;2.93;2.13;;;9.90;39.50;;;;;;5021550;28;20205;-83
2023/04/03 10:42:07;;;;;;;2.50;2.30;;;9.70;39.90;;;;;;5003709;28;20672;-85
2023/04/03 10:44:47;;;;;;;3.33;2.20;;;10.40;39.20;;;;;;5002837;28;20224;-84
2023/04/03 10:47:25;;;;;;;3.63;2.50;;;11.00;36.70;;;;;;5019818;28;20200;-83
2023/04/03 10:49:58;;;;;;;2.50;2.30;;;10.70;35.90;;;;;;5021111;28;20449;-85
2023/04/03 10:52:41;;;;;;;3.43;2.27;;;11.00;35.80;;;;;;5021252;28;20601;-83
2023/04/03 10:55:28;;;;;;;2.70;2.10;;;11.00;35.70;;;;;;5021743;28;20185;-82
2023/04/03 10:57:58;;;;;;;2.00;1.90;;;11.40;35.70;;;;;;5011511;28;20231;-85
2023/04/03 11:00:37;;;;;;;2.43;2.23;;;11.60;33.30;;;;;;5004947;28;20198;-81
2023/04/03 11:03:17;;;;;;;2.17;2.00;;;11.90;35.20;;;;;;5006077;28;20177;-84
2023/04/03 11:05:50;;;;;;;2.30;2.10;;;12.00;35.30;;;;;;5023771;28;20189;-83
2023/04/03 11:08:35;;;;;;;2.43;2.23;;;11.50;34.10;;;;;;5023312;28;20261;-85
2023/04/03 11:11:08;;;;;;;2.40;2.20;;;11.40;35.20;;;;;;5024517;28;20284;-83
2023/04/03 11:14:09;;;;;;;3.27;2.20;;;11.30;35.40;;;;;;5043459;28;20276;-85
2023/04/03 11:16:41;;;;;;;2.80;2.23;;;11.40;34.50;;;;;;5036963;28;20196;-87
2023/04/03 11:19:12;;;;;;;2.30;2.10;;;11.00;35.80;;;;;;5043578;28;20220;-83
2023/04/03 11:21:44;;;;;;;6.67;2.50;;;10.70;37.00;;;;;;5044101;28;20173;-84
2023/04/03 11:24:23;;;;;;;3.20;2.30;;;10.60;35.90;;;;;;5037076;28;20193;-84
2023/04/03 11:26:50;;;;;;;3.00;2.33;;;10.60;36.20;;;;;;5035593;28;20237;-84
2023/04/03 11:29:24;;;;;;;2.50;2.30;;;10.40;36.50;;;;;;5024451;28;20201;-85
2023/04/03 11:32:10;;;;;;;2.80;2.47;;;10.20;36.30;;;;;;5024951;28;20185;-89
2023/04/03 11:34:41;;;;;;;3.50;2.60;;;10.10;37.90;;;;;;5022791;28;20208;-84
2023/04/03 11:37:35;;;;;;;3.50;2.83;;;10.10;37.70;;;;;;5022841;28;20166;-84
2023/04/03 11:40:03;;;;;;;4.70;2.40;;;10.00;38.30;;;;;;5020744;28;20194;-80
2023/04/03 11:42:38;;;;;;;4.73;2.50;;;10.10;38.50;;;;;;5015606;28;20182;-83
2023/04/03 11:45:26;;;;;;;3.40;2.80;;;10.10;37.60;;;;;;5022412;28;20228;-82
2023/04/03 11:48:01;;;;;;;5.83;2.73;;;10.30;37.70;;;;;;5024234;28;20806;-83
2023/04/03 11:50:42;;;;;;;4.00;2.63;;;10.40;38.20;;;;;;5023615;28;20236;-84
2023/04/03 11:53:08;;;;;;;6.27;2.60;;;10.40;39.00;;;;;;5022174;28;20587;-85
2023/04/03 11:55:33;;;;;;;3.50;3.00;;;10.60;37.40;;;;;;5033235;28;20182;-83
2023/04/03 11:57:59;;;;;;;4.37;3.97;;;10.70;37.70;;;;;;5022118;28;20235;-84
2023/04/03 12:00:43;;;;;;;3.10;2.80;;;10.80;36.80;;;;;;5022337;28;20351;-83
2023/04/03 12:03:25;;;;;;;3.10;2.60;;;10.80;37.20;;;;;;5007692;28;20192;-86
2023/04/03 12:05:52;;;;;;;4.03;2.50;;;10.90;37.60;;;;;;5024593;28;20242;-86
2023/04/03 12:08:25;;;;;;;4.70;4.20;;;10.80;36.90;;;;;;5026142;28;20250;-85
2023/04/03 12:11:13;;;;;;;4.80;3.33;;;10.80;37.20;;;;;;5008314;28;20213;-84
2023/04/03 12:13:57;;;;;;;4.37;3.83;;;10.60;37.30;;;;;;5025957;28;20189;-83
2023/04/03 12:16:30;;;;;;;3.83;3.43;;;10.50;37.60;;;;;;5024958;28;20162;-83
2023/04/03 12:19:03;;;;;;;6.30;5.60;;;10.40;39.20;;;;;;5008168;28;20249;-85
2023/04/03 12:21:51;;;;;;;5.37;3.93;;;10.40;38.40;;;;;;5029709;28;20230;-88
2023/04/03 12:24:17;;;;;;;3.20;2.83;;;10.10;38.40;;;;;;5036632;28;20170;-84
2023/04/03 12:27:01;;;;;;;4.20;3.70;;;9.80;38.70;;;;;;5044114;28;20271;-89
2023/04/03 12:29:33;;;;;;;2.90;2.70;;;9.90;38.80;;;;;;5043535;28;20189;-87
2023/04/03 12:32:25;;;;;;;2.57;2.37;;;10.20;36.90;;;;;;5003026;28;20183;-87
2023/04/03 12:35:12;;;;;;;3.37;2.30;;;10.40;37.40;;;;;;5005095;28;20187;-86
2023/04/03 12:38:00;;;;;;;2.63;2.40;;;10.50;37.60;;;;;;5013970;28;20267;-87
2023/04/03 12:40:57;;;;;;;3.33;2.50;;;10.50;37.80;;;;;;5014916;28;20285;-88
2023/04/03 12:43:36;;;;;;;2.30;2.10;;;10.30;37.80;;;;;;4978931;28;20301;-88
2023/04/03 12:46:07;;;;;;;5.23;2.77;;;10.00;39.30;;;;;;5012579;28;20182;-89
2023/04/03 12:48:45;;;;;;;4.27;3.87;;;10.10;38.40;;;;;;5013356;28;20300;-89
2023/04/03 12:51:37;;;;;;;5.13;3.40;;;10.10;38.90;;;;;;5017495;28;20200;-88
2023/04/03 12:54:32;;;;;;;4.57;3.70;;;10.10;38.60;;;;;;5007994;28;20225;-89
2023/04/03 12:57:20;;;;;;;5.53;3.80;;;10.00;39.90;;;;;;5015447;28;20217;-89
2023/04/03 12:59:46;;;;;;;5.57;4.90;;;9.90;39.90;;;;;;5017074;28;20209;-87
2023/04/03 13:02:33;;;;;;;3.60;3.30;;;9.80;40.30;;;;;;5014848;28;20730;-88
2023/04/03 13:05:04;;;;;;;2.87;2.67;;;9.90;40.20;;;;;;4997475;28;20192;-88
2023/04/03 13:07:34;;;;;;;3.50;2.80;;;9.80;38.60;;;;;;5014669;28;20186;-88
2023/04/03 13:10:01;;;;;;;4.60;3.37;;;9.70;38.90;;;;;;5015473;28;20248;-88
2023/04/03 13:12:27;;;;;;;2.53;2.33;;;9.70;38.50;;;;;;5016178;28;20573;-89